sensor_id;sensor_type;location;lat;lon;timestamp;P1;durP1;ratioP1;P2;durP2;ratioP2
20036;SDS011;10179;42.640;23.312;2022-09-17T00:00:49;5.47;;;1.88;;
20036;SDS011;10179;42.640;23.312;2022-09-17T00:03:16;3.45;;;1.75;;
20036;SDS011;10179;42.640;23.312;2022-09-17T00:05:42;5.70;;;1.92;;
20036;SDS011;10179;42.640;23.312;2022-09-17T00:08:12;3.42;;;2.25;;
20036;SDS011;10179;42.640;23.312;2022-09-17T00:10:39;7.43;;;1.85;;
20036;SDS011;10179;42.640;23.312;2022-09-17T00:13:06;8.52;;;2.17;;
20036;SDS011;10179;42.640;23.312;2022-09-17T00:15:37;5.75;;;1.60;;
20036;SDS011;10179;42.640;23.312;2022-09-17T00:18:06;6.35;;;1.60;;
20036;SDS011;10179;42.640;23.312;2022-09-17T00:20:36;3.42;;;1.40;;
20036;SDS011;10179;42.640;23.312;2022-09-17T00:23:02;4.80;;;2.25;;
20036;SDS011;10179;42.640;23.312;2022-09-17T00:25:28;5.38;;;1.67;;
20036;SDS011;10179;42.640;23.312;2022-09-17T00:27:53;4.13;;;2.08;;
20036;SDS011;10179;42.640;23.312;2022-09-17T00:30:19;2.63;;;1.65;;
20036;SDS011;10179;42.640;23.312;2022-09-17T00:32:44;4.40;;;1.92;;
20036;SDS011;10179;42.640;23.312;2022-09-17T00:35:09;6.88;;;1.80;;
20036;SDS011;10179;42.640;23.312;2022-09-17T00:37:35;7.30;;;1.42;;
20036;SDS011;10179;42.640;23.312;2022-09-17T00:40:00;3.35;;;1.23;;
20036;SDS011;10179;42.640;23.312;2022-09-17T00:42:26;5.43;;;2.10;;
20036;SDS011;10179;42.640;23.312;2022-09-17T00:44:52;8.75;;;2.08;;
20036;SDS011;10179;42.640;23.312;2022-09-17T00:47:38;3.90;;;1.85;;
20036;SDS011;10179;42.640;23.312;2022-09-17T00:50:17;5.18;;;2.17;;
20036;SDS011;10179;42.640;23.312;2022-09-17T00:53:00;11.32;;;2.80;;
20036;SDS011;10179;42.640;23.312;2022-09-17T00:55:35;9.02;;;2.88;;
20036;SDS011;10179;42.640;23.312;2022-09-17T00:58:04;5.30;;;2.35;;
20036;SDS011;10179;42.640;23.312;2022-09-17T01:00:31;10.00;;;2.60;;
20036;SDS011;10179;42.640;23.312;2022-09-17T01:02:57;9.35;;;2.30;;
20036;SDS011;10179;42.640;23.312;2022-09-17T01:05:33;5.70;;;2.53;;
20036;SDS011;10179;42.640;23.312;2022-09-17T01:18:35;6.60;;;2.72;;
20036;SDS011;10179;42.640;23.312;2022-09-17T01:29:33;4.07;;;2.60;;
20036;SDS011;10179;42.640;23.312;2022-09-17T01:32:04;4.30;;;2.53;;
20036;SDS011;10179;42.640;23.312;2022-09-17T01:35:04;11.50;;;3.17;;
20036;SDS011;10179;42.640;23.312;2022-09-17T01:40:33;13.55;;;4.28;;
20036;SDS011;10179;42.640;23.312;2022-09-17T01:43:08;10.13;;;4.45;;
20036;SDS011;10179;42.640;23.312;2022-09-17T01:48:20;11.02;;;4.03;;
20036;SDS011;10179;42.640;23.312;2022-09-17T01:50:55;8.50;;;3.90;;
20036;SDS011;10179;42.640;23.312;2022-09-17T01:53:25;10.50;;;4.38;;
20036;SDS011;10179;42.640;23.312;2022-09-17T01:55:55;9.52;;;4.03;;
20036;SDS011;10179;42.640;23.312;2022-09-17T01:58:27;9.02;;;2.95;;
20036;SDS011;10179;42.640;23.312;2022-09-17T02:01:00;8.15;;;4.00;;
20036;SDS011;10179;42.640;23.312;2022-09-17T02:03:36;9.27;;;4.00;;
20036;SDS011;10179;42.640;23.312;2022-09-17T02:06:19;7.43;;;4.13;;
20036;SDS011;10179;42.640;23.312;2022-09-17T02:11:17;14.30;;;4.18;;
20036;SDS011;10179;42.640;23.312;2022-09-17T02:13:45;15.20;;;4.07;;
20036;SDS011;10179;42.640;23.312;2022-09-17T02:16:26;7.35;;;4.15;;
20036;SDS011;10179;42.640;23.312;2022-09-17T02:21:34;8.27;;;2.45;;
20036;SDS011;10179;42.640;23.312;2022-09-17T02:24:15;7.47;;;3.67;;
20036;SDS011;10179;42.640;23.312;2022-09-17T02:26:47;9.23;;;3.13;;
20036;SDS011;10179;42.640;23.312;2022-09-17T02:29:25;8.68;;;3.90;;
20036;SDS011;10179;42.640;23.312;2022-09-17T02:32:03;6.90;;;3.47;;
20036;SDS011;10179;42.640;23.312;2022-09-17T02:34:29;6.88;;;3.15;;
20036;SDS011;10179;42.640;23.312;2022-09-17T02:36:55;7.78;;;2.58;;
20036;SDS011;10179;42.640;23.312;2022-09-17T02:39:23;7.00;;;3.33;;
20036;SDS011;10179;42.640;23.312;2022-09-17T02:41:51;8.80;;;3.58;;
20036;SDS011;10179;42.640;23.312;2022-09-17T02:48:02;6.28;;;3.53;;
20036;SDS011;10179;42.640;23.312;2022-09-17T02:56:27;8.32;;;3.92;;
20036;SDS011;10179;42.640;23.312;2022-09-17T02:58:59;7.40;;;3.45;;
20036;SDS011;10179;42.640;23.312;2022-09-17T03:01:38;5.30;;;3.13;;
20036;SDS011;10179;42.640;23.312;2022-09-17T03:04:09;6.07;;;3.38;;
20036;SDS011;10179;42.640;23.312;2022-09-17T03:06:40;7.65;;;3.28;;
20036;SDS011;10179;42.640;23.312;2022-09-17T03:09:09;5.45;;;3.42;;
20036;SDS011;10179;42.640;23.312;2022-09-17T03:11:34;4.35;;;3.08;;
20036;SDS011;10179;42.640;23.312;2022-09-17T03:13:59;8.10;;;3.33;;
20036;SDS011;10179;42.640;23.312;2022-09-17T03:16:25;5.28;;;3.13;;
20036;SDS011;10179;42.640;23.312;2022-09-17T03:18:50;7.32;;;3.22;;
20036;SDS011;10179;42.640;23.312;2022-09-17T03:21:16;6.82;;;3.78;;
20036;SDS011;10179;42.640;23.312;2022-09-17T03:23:41;8.85;;;3.80;;
20036;SDS011;10179;42.640;23.312;2022-09-17T03:26:06;5.22;;;3.60;;
20036;SDS011;10179;42.640;23.312;2022-09-17T03:28:32;6.38;;;3.83;;
20036;SDS011;10179;42.640;23.312;2022-09-17T03:30:58;7.50;;;3.72;;
20036;SDS011;10179;42.640;23.312;2022-09-17T03:33:23;10.20;;;3.50;;
20036;SDS011;10179;42.640;23.312;2022-09-17T03:35:48;7.40;;;2.83;;
20036;SDS011;10179;42.640;23.312;2022-09-17T03:38:14;4.65;;;2.63;;
20036;SDS011;10179;42.640;23.312;2022-09-17T03:40:40;8.90;;;2.17;;
20036;SDS011;10179;42.640;23.312;2022-09-17T03:43:06;2.90;;;1.77;;
20036;SDS011;10179;42.640;23.312;2022-09-17T03:45:32;5.82;;;1.70;;
20036;SDS011;10179;42.640;23.312;2022-09-17T03:47:57;5.68;;;1.67;;
20036;SDS011;10179;42.640;23.312;2022-09-17T03:50:23;5.95;;;1.63;;
20036;SDS011;10179;42.640;23.312;2022-09-17T03:52:48;5.78;;;1.70;;
20036;SDS011;10179;42.640;23.312;2022-09-17T03:55:14;6.90;;;1.60;;
20036;SDS011;10179;42.640;23.312;2022-09-17T03:57:41;6.35;;;1.63;;
20036;SDS011;10179;42.640;23.312;2022-09-17T04:00:07;4.72;;;1.63;;
20036;SDS011;10179;42.640;23.312;2022-09-17T04:02:33;6.07;;;1.80;;
20036;SDS011;10179;42.640;23.312;2022-09-17T04:04:58;6.18;;;2.25;;
20036;SDS011;10179;42.640;23.312;2022-09-17T04:07:24;7.25;;;2.13;;
20036;SDS011;10179;42.640;23.312;2022-09-17T04:09:49;7.20;;;1.63;;
20036;SDS011;10179;42.640;23.312;2022-09-17T04:12:14;5.57;;;1.65;;
20036;SDS011;10179;42.640;23.312;2022-09-17T04:14:41;4.25;;;1.40;;
20036;SDS011;10179;42.640;23.312;2022-09-17T04:17:06;1.75;;;1.13;;
20036;SDS011;10179;42.640;23.312;2022-09-17T04:19:31;3.65;;;1.48;;
20036;SDS011;10179;42.640;23.312;2022-09-17T04:21:57;3.90;;;1.55;;
20036;SDS011;10179;42.640;23.312;2022-09-17T04:24:22;3.72;;;1.30;;
20036;SDS011;10179;42.640;23.312;2022-09-17T04:26:48;4.53;;;1.58;;
20036;SDS011;10179;42.640;23.312;2022-09-17T04:29:13;4.00;;;1.92;;
20036;SDS011;10179;42.640;23.312;2022-09-17T04:31:39;7.20;;;1.92;;
20036;SDS011;10179;42.640;23.312;2022-09-17T04:34:04;5.25;;;2.17;;
20036;SDS011;10179;42.640;23.312;2022-09-17T04:36:29;3.00;;;1.90;;
20036;SDS011;10179;42.640;23.312;2022-09-17T04:38:55;6.85;;;2.20;;
20036;SDS011;10179;42.640;23.312;2022-09-17T04:41:20;7.40;;;1.83;;
20036;SDS011;10179;42.640;23.312;2022-09-17T04:43:46;4.45;;;2.15;;
20036;SDS011;10179;42.640;23.312;2022-09-17T04:46:11;4.68;;;2.28;;
20036;SDS011;10179;42.640;23.312;2022-09-17T04:48:38;4.63;;;1.85;;
20036;SDS011;10179;42.640;23.312;2022-09-17T04:51:03;5.95;;;2.58;;
20036;SDS011;10179;42.640;23.312;2022-09-17T04:53:29;6.72;;;3.40;;
20036;SDS011;10179;42.640;23.312;2022-09-17T04:55:55;8.07;;;3.03;;
20036;SDS011;10179;42.640;23.312;2022-09-17T04:58:20;5.50;;;2.42;;
20036;SDS011;10179;42.640;23.312;2022-09-17T05:00:46;6.45;;;2.97;;
20036;SDS011;10179;42.640;23.312;2022-09-17T05:03:12;7.78;;;2.95;;
20036;SDS011;10179;42.640;23.312;2022-09-17T05:05:37;7.47;;;2.15;;
20036;SDS011;10179;42.640;23.312;2022-09-17T05:08:03;7.78;;;2.22;;
20036;SDS011;10179;42.640;23.312;2022-09-17T05:10:28;7.47;;;1.95;;
20036;SDS011;10179;42.640;23.312;2022-09-17T05:12:54;12.20;;;2.63;;
20036;SDS011;10179;42.640;23.312;2022-09-17T05:15:20;5.30;;;1.33;;
20036;SDS011;10179;42.640;23.312;2022-09-17T05:17:47;9.23;;;2.30;;
20036;SDS011;10179;42.640;23.312;2022-09-17T05:20:14;7.20;;;2.40;;
20036;SDS011;10179;42.640;23.312;2022-09-17T05:22:41;7.55;;;2.63;;
20036;SDS011;10179;42.640;23.312;2022-09-17T05:25:10;6.32;;;2.58;;
20036;SDS011;10179;42.640;23.312;2022-09-17T05:27:37;6.15;;;1.90;;
20036;SDS011;10179;42.640;23.312;2022-09-17T05:30:03;5.60;;;2.25;;
20036;SDS011;10179;42.640;23.312;2022-09-17T05:32:29;6.32;;;2.60;;
20036;SDS011;10179;42.640;23.312;2022-09-17T05:34:55;9.45;;;2.70;;
20036;SDS011;10179;42.640;23.312;2022-09-17T05:37:20;8.32;;;2.95;;
20036;SDS011;10179;42.640;23.312;2022-09-17T05:39:46;6.60;;;1.80;;
20036;SDS011;10179;42.640;23.312;2022-09-17T05:42:11;5.80;;;2.42;;
20036;SDS011;10179;42.640;23.312;2022-09-17T05:44:37;8.80;;;2.00;;
20036;SDS011;10179;42.640;23.312;2022-09-17T05:47:02;2.97;;;1.00;;
20036;SDS011;10179;42.640;23.312;2022-09-17T05:49:28;3.78;;;0.90;;
20036;SDS011;10179;42.640;23.312;2022-09-17T05:51:53;3.92;;;0.60;;
20036;SDS011;10179;42.640;23.312;2022-09-17T05:54:19;1.27;;;0.50;;
20036;SDS011;10179;42.640;23.312;2022-09-17T05:56:44;4.03;;;0.98;;
20036;SDS011;10179;42.640;23.312;2022-09-17T05:59:10;4.95;;;0.70;;
20036;SDS011;10179;42.640;23.312;2022-09-17T06:01:36;2.08;;;0.55;;
20036;SDS011;10179;42.640;23.312;2022-09-17T06:04:01;3.65;;;0.60;;
20036;SDS011;10179;42.640;23.312;2022-09-17T06:06:28;1.88;;;1.30;;
20036;SDS011;10179;42.640;23.312;2022-09-17T06:08:55;4.88;;;2.28;;
20036;SDS011;10179;42.640;23.312;2022-09-17T06:11:23;6.88;;;1.88;;
20036;SDS011;10179;42.640;23.312;2022-09-17T06:13:51;8.82;;;1.90;;
20036;SDS011;10179;42.640;23.312;2022-09-17T06:16:17;6.65;;;1.90;;
20036;SDS011;10179;42.640;23.312;2022-09-17T06:18:42;3.10;;;1.35;;
20036;SDS011;10179;42.640;23.312;2022-09-17T06:21:08;4.60;;;0.70;;
20036;SDS011;10179;42.640;23.312;2022-09-17T06:23:33;1.40;;;0.60;;
20036;SDS011;10179;42.640;23.312;2022-09-17T06:26:02;3.08;;;0.68;;
20036;SDS011;10179;42.640;23.312;2022-09-17T06:28:30;4.07;;;1.67;;
20036;SDS011;10179;42.640;23.312;2022-09-17T06:30:59;7.25;;;2.25;;
20036;SDS011;10179;42.640;23.312;2022-09-17T06:33:30;7.20;;;2.53;;
20036;SDS011;10179;42.640;23.312;2022-09-17T06:35:56;9.45;;;3.90;;
20036;SDS011;10179;42.640;23.312;2022-09-17T06:38:27;9.98;;;3.47;;
20036;SDS011;10179;42.640;23.312;2022-09-17T06:40:53;10.55;;;3.80;;
20036;SDS011;10179;42.640;23.312;2022-09-17T06:43:18;10.52;;;3.40;;
20036;SDS011;10179;42.640;23.312;2022-09-17T06:45:54;10.60;;;3.65;;
20036;SDS011;10179;42.640;23.312;2022-09-17T06:48:22;8.88;;;3.03;;
20036;SDS011;10179;42.640;23.312;2022-09-17T06:50:49;10.00;;;3.40;;
20036;SDS011;10179;42.640;23.312;2022-09-17T06:53:15;11.00;;;3.03;;
20036;SDS011;10179;42.640;23.312;2022-09-17T06:55:41;7.80;;;3.17;;
20036;SDS011;10179;42.640;23.312;2022-09-17T06:58:06;10.23;;;3.38;;
20036;SDS011;10179;42.640;23.312;2022-09-17T07:00:32;7.30;;;3.42;;
20036;SDS011;10179;42.640;23.312;2022-09-17T07:02:58;8.07;;;2.88;;
20036;SDS011;10179;42.640;23.312;2022-09-17T07:05:25;9.45;;;3.50;;
20036;SDS011;10179;42.640;23.312;2022-09-17T07:07:52;10.65;;;3.15;;
20036;SDS011;10179;42.640;23.312;2022-09-17T07:10:18;14.02;;;3.47;;
20036;SDS011;10179;42.640;23.312;2022-09-17T07:12:44;5.53;;;2.80;;
20036;SDS011;10179;42.640;23.312;2022-09-17T07:15:10;8.10;;;2.90;;
20036;SDS011;10179;42.640;23.312;2022-09-17T07:17:36;8.90;;;3.20;;
20036;SDS011;10179;42.640;23.312;2022-09-17T07:20:04;11.13;;;3.78;;
20036;SDS011;10179;42.640;23.312;2022-09-17T07:22:33;9.32;;;3.47;;
20036;SDS011;10179;42.640;23.312;2022-09-17T07:24:59;7.18;;;2.95;;
20036;SDS011;10179;42.640;23.312;2022-09-17T07:27:28;13.80;;;3.08;;
20036;SDS011;10179;42.640;23.312;2022-09-17T07:29:54;6.35;;;2.67;;
20036;SDS011;10179;42.640;23.312;2022-09-17T07:32:20;6.07;;;2.45;;
20036;SDS011;10179;42.640;23.312;2022-09-17T07:34:45;6.28;;;2.13;;
20036;SDS011;10179;42.640;23.312;2022-09-17T07:37:12;7.35;;;2.03;;
20036;SDS011;10179;42.640;23.312;2022-09-17T07:39:37;10.95;;;2.38;;
20036;SDS011;10179;42.640;23.312;2022-09-17T07:42:03;4.50;;;1.75;;
20036;SDS011;10179;42.640;23.312;2022-09-17T07:44:29;6.07;;;2.08;;
20036;SDS011;10179;42.640;23.312;2022-09-17T07:46:55;7.47;;;2.00;;
20036;SDS011;10179;42.640;23.312;2022-09-17T07:49:20;6.82;;;2.03;;
20036;SDS011;10179;42.640;23.312;2022-09-17T07:51:46;6.20;;;1.90;;
20036;SDS011;10179;42.640;23.312;2022-09-17T07:54:11;7.53;;;2.13;;
20036;SDS011;10179;42.640;23.312;2022-09-17T07:56:36;9.30;;;2.42;;
20036;SDS011;10179;42.640;23.312;2022-09-17T07:59:02;8.30;;;2.42;;
20036;SDS011;10179;42.640;23.312;2022-09-17T08:01:28;6.18;;;2.70;;
20036;SDS011;10179;42.640;23.312;2022-09-17T08:03:55;4.45;;;2.33;;
20036;SDS011;10179;42.640;23.312;2022-09-17T08:06:22;10.45;;;2.75;;
20036;SDS011;10179;42.640;23.312;2022-09-17T08:08:50;12.13;;;2.90;;
20036;SDS011;10179;42.640;23.312;2022-09-17T08:11:20;5.78;;;2.38;;
20036;SDS011;10179;42.640;23.312;2022-09-17T08:13:47;6.90;;;3.30;;
20036;SDS011;10179;42.640;23.312;2022-09-17T08:16:14;8.85;;;3.00;;
20036;SDS011;10179;42.640;23.312;2022-09-17T08:18:40;7.82;;;3.35;;
20036;SDS011;10179;42.640;23.312;2022-09-17T08:21:08;8.27;;;2.72;;
20036;SDS011;10179;42.640;23.312;2022-09-17T08:23:36;8.70;;;2.25;;
20036;SDS011;10179;42.640;23.312;2022-09-17T08:26:03;13.30;;;2.97;;
20036;SDS011;10179;42.640;23.312;2022-09-17T08:28:31;5.65;;;2.45;;
20036;SDS011;10179;42.640;23.312;2022-09-17T08:31:15;6.38;;;2.30;;
20036;SDS011;10179;42.640;23.312;2022-09-17T08:33:42;12.13;;;1.92;;
20036;SDS011;10179;42.640;23.312;2022-09-17T08:36:09;6.05;;;2.03;;
20036;SDS011;10179;42.640;23.312;2022-09-17T08:38:36;5.95;;;1.70;;
20036;SDS011;10179;42.640;23.312;2022-09-17T08:46:37;5.43;;;1.63;;
20036;SDS011;10179;42.640;23.312;2022-09-17T08:55:45;9.43;;;2.53;;
20036;SDS011;10179;42.640;23.312;2022-09-17T09:06:14;5.35;;;1.58;;
20036;SDS011;10179;42.640;23.312;2022-09-17T09:08:42;3.03;;;1.30;;
20036;SDS011;10179;42.640;23.312;2022-09-17T09:11:16;7.00;;;1.70;;
20036;SDS011;10179;42.640;23.312;2022-09-17T09:13:47;6.00;;;2.08;;
20036;SDS011;10179;42.640;23.312;2022-09-17T09:16:18;9.38;;;1.77;;
20036;SDS011;10179;42.640;23.312;2022-09-17T09:18:49;5.88;;;1.70;;
20036;SDS011;10179;42.640;23.312;2022-09-17T09:26:22;9.00;;;2.20;;
20036;SDS011;10179;42.640;23.312;2022-09-17T09:34:31;3.60;;;1.52;;
20036;SDS011;10179;42.640;23.312;2022-09-17T09:37:18;7.80;;;2.08;;
20036;SDS011;10179;42.640;23.312;2022-09-17T09:39:49;5.13;;;1.83;;
20036;SDS011;10179;42.640;23.312;2022-09-17T09:42:26;4.45;;;2.00;;
20036;SDS011;10179;42.640;23.312;2022-09-17T09:45:14;5.20;;;2.22;;
20036;SDS011;10179;42.640;23.312;2022-09-17T09:47:53;5.82;;;1.90;;
20036;SDS011;10179;42.640;23.312;2022-09-17T09:50:44;5.85;;;2.67;;
20036;SDS011;10179;42.640;23.312;2022-09-17T09:53:21;12.15;;;3.10;;
20036;SDS011;10179;42.640;23.312;2022-09-17T09:58:47;8.27;;;3.25;;
20036;SDS011;10179;42.640;23.312;2022-09-17T10:01:14;11.38;;;3.95;;
20036;SDS011;10179;42.640;23.312;2022-09-17T10:03:41;6.43;;;3.13;;
20036;SDS011;10179;42.640;23.312;2022-09-17T10:06:10;10.43;;;3.40;;
20036;SDS011;10179;42.640;23.312;2022-09-17T10:08:37;9.07;;;3.53;;
20036;SDS011;10179;42.640;23.312;2022-09-17T10:13:34;10.07;;;2.95;;
20036;SDS011;10179;42.640;23.312;2022-09-17T10:16:19;7.93;;;2.28;;
20036;SDS011;10179;42.640;23.312;2022-09-17T10:18:54;9.38;;;2.88;;
20036;SDS011;10179;42.640;23.312;2022-09-17T10:21:39;6.47;;;2.55;;
20036;SDS011;10179;42.640;23.312;2022-09-17T10:27:11;8.77;;;2.08;;
20036;SDS011;10179;42.640;23.312;2022-09-17T10:29:46;6.93;;;1.92;;
20036;SDS011;10179;42.640;23.312;2022-09-17T10:32:15;6.18;;;2.13;;
20036;SDS011;10179;42.640;23.312;2022-09-17T10:34:56;7.57;;;2.58;;
20036;SDS011;10179;42.640;23.312;2022-09-17T10:42:43;3.90;;;1.63;;
20036;SDS011;10179;42.640;23.312;2022-09-17T10:45:23;0.65;;;0.30;;
20036;SDS011;10179;42.640;23.312;2022-09-17T10:47:50;1.70;;;0.60;;
20036;SDS011;10179;42.640;23.312;2022-09-17T10:50:17;6.28;;;1.35;;
20036;SDS011;10179;42.640;23.312;2022-09-17T10:52:55;2.10;;;1.13;;
20036;SDS011;10179;42.640;23.312;2022-09-17T10:55:32;2.70;;;1.50;;
20036;SDS011;10179;42.640;23.312;2022-09-17T11:06:14;6.22;;;2.33;;
20036;SDS011;10179;42.640;23.312;2022-09-17T11:14:18;6.85;;;3.92;;
20036;SDS011;10179;42.640;23.312;2022-09-17T11:23:50;8.75;;;2.90;;
20036;SDS011;10179;42.640;23.312;2022-09-17T11:26:32;8.45;;;3.22;;
20036;SDS011;10179;42.640;23.312;2022-09-17T11:32:01;6.32;;;2.55;;
20036;SDS011;10179;42.640;23.312;2022-09-17T11:34:41;4.18;;;1.80;;
20036;SDS011;10179;42.640;23.312;2022-09-17T11:42:36;7.03;;;2.78;;
20036;SDS011;10179;42.640;23.312;2022-09-17T11:45:11;4.50;;;2.38;;
20036;SDS011;10179;42.640;23.312;2022-09-17T11:47:47;8.68;;;2.78;;
20036;SDS011;10179;42.640;23.312;2022-09-17T11:50:30;4.63;;;2.70;;
20036;SDS011;10179;42.640;23.312;2022-09-17T11:55:58;6.90;;;2.33;;
20036;SDS011;10179;42.640;23.312;2022-09-17T11:58:39;4.63;;;2.15;;
20036;SDS011;10179;42.640;23.312;2022-09-17T12:01:29;5.43;;;2.13;;
20036;SDS011;10179;42.640;23.312;2022-09-17T12:04:00;5.45;;;0.65;;
20036;SDS011;10179;42.640;23.312;2022-09-17T12:07:01;3.60;;;1.67;;
20036;SDS011;10179;42.640;23.312;2022-09-17T12:09:35;2.13;;;0.82;;
20036;SDS011;10179;42.640;23.312;2022-09-17T12:12:07;2.95;;;1.08;;
20036;SDS011;10179;42.640;23.312;2022-09-17T12:18:15;0.57;;;0.30;;
20036;SDS011;10179;42.640;23.312;2022-09-17T12:20:28;2.72;;;0.85;;
20036;SDS011;10179;42.640;23.312;2022-09-17T12:22:58;2.28;;;0.90;;
20036;SDS011;10179;42.640;23.312;2022-09-17T12:25:32;2.42;;;1.20;;
20036;SDS011;10179;42.640;23.312;2022-09-17T12:30:39;3.50;;;0.90;;
20036;SDS011;10179;42.640;23.312;2022-09-17T12:35:54;1.80;;;0.30;;
20036;SDS011;10179;42.640;23.312;2022-09-17T12:38:31;1.38;;;0.10;;
20036;SDS011;10179;42.640;23.312;2022-09-17T12:44:25;1.10;;;0.30;;
20036;SDS011;10179;42.640;23.312;2022-09-17T12:58:03;0.30;;;0.28;;
20036;SDS011;10179;42.640;23.312;2022-09-17T13:00:39;1.38;;;0.45;;
20036;SDS011;10179;42.640;23.312;2022-09-17T13:08:12;0.57;;;0.50;;
20036;SDS011;10179;42.640;23.312;2022-09-17T13:13:35;1.60;;;1.02;;
20036;SDS011;10179;42.640;23.312;2022-09-17T13:21:59;1.02;;;0.30;;
20036;SDS011;10179;42.640;23.312;2022-09-17T13:24:31;1.02;;;0.20;;
20036;SDS011;10179;42.640;23.312;2022-09-17T13:26:58;0.95;;;0.43;;
20036;SDS011;10179;42.640;23.312;2022-09-17T13:37:42;2.00;;;0.65;;
20036;SDS011;10179;42.640;23.312;2022-09-17T13:40:32;1.75;;;0.40;;
20036;SDS011;10179;42.640;23.312;2022-09-17T13:45:30;0.85;;;0.30;;
20036;SDS011;10179;42.640;23.312;2022-09-17T13:50:41;0.63;;;0.32;;
20036;SDS011;10179;42.640;23.312;2022-09-17T13:58:07;1.60;;;0.35;;
20036;SDS011;10179;42.640;23.312;2022-09-17T14:05:52;0.65;;;0.52;;
20036;SDS011;10179;42.640;23.312;2022-09-17T14:10:55;0.50;;;0.38;;
20036;SDS011;10179;42.640;23.312;2022-09-17T14:13:41;0.40;;;0.40;;
20036;SDS011;10179;42.640;23.312;2022-09-17T14:16:25;0.63;;;0.40;;
20036;SDS011;10179;42.640;23.312;2022-09-17T14:21:55;0.57;;;0.20;;
20036;SDS011;10179;42.640;23.312;2022-09-17T14:27:09;0.60;;;0.25;;
20036;SDS011;10179;42.640;23.312;2022-09-17T14:35:11;1.63;;;0.70;;
20036;SDS011;10179;42.640;23.312;2022-09-17T14:37:40;5.20;;;1.00;;
20036;SDS011;10179;42.640;23.312;2022-09-17T14:40:13;0.90;;;0.75;;
20036;SDS011;10179;42.640;23.312;2022-09-17T14:42:42;2.60;;;0.95;;
20036;SDS011;10179;42.640;23.312;2022-09-17T14:50:50;2.85;;;0.82;;
20036;SDS011;10179;42.640;23.312;2022-09-17T14:53:17;3.35;;;1.10;;
20036;SDS011;10179;42.640;23.312;2022-09-17T14:55:50;3.05;;;1.38;;
20036;SDS011;10179;42.640;23.312;2022-09-17T14:58:27;2.20;;;1.17;;
20036;SDS011;10179;42.640;23.312;2022-09-17T15:00:57;3.47;;;1.02;;
20036;SDS011;10179;42.640;23.312;2022-09-17T15:03:23;2.22;;;0.88;;
20036;SDS011;10179;42.640;23.312;2022-09-17T15:05:49;2.45;;;1.02;;
20036;SDS011;10179;42.640;23.312;2022-09-17T15:08:21;4.25;;;1.13;;
20036;SDS011;10179;42.640;23.312;2022-09-17T15:13:31;4.43;;;1.45;;
20036;SDS011;10179;42.640;23.312;2022-09-17T15:18:51;3.80;;;1.48;;
20036;SDS011;10179;42.640;23.312;2022-09-17T15:23:46;3.55;;;1.70;;
20036;SDS011;10179;42.640;23.312;2022-09-17T15:26:14;2.35;;;1.40;;
20036;SDS011;10179;42.640;23.312;2022-09-17T15:31:16;4.47;;;1.10;;
20036;SDS011;10179;42.640;23.312;2022-09-17T15:33:43;2.92;;;1.20;;
20036;SDS011;10179;42.640;23.312;2022-09-17T15:36:16;3.92;;;1.45;;
20036;SDS011;10179;42.640;23.312;2022-09-17T15:38:46;2.10;;;1.17;;
20036;SDS011;10179;42.640;23.312;2022-09-17T15:41:29;4.75;;;0.95;;
20036;SDS011;10179;42.640;23.312;2022-09-17T15:44:32;4.93;;;1.30;;
20036;SDS011;10179;42.640;23.312;2022-09-17T15:46:51;2.08;;;0.82;;
20036;SDS011;10179;42.640;23.312;2022-09-17T15:49:27;1.80;;;1.10;;
20036;SDS011;10179;42.640;23.312;2022-09-17T15:55:03;3.97;;;2.20;;
20036;SDS011;10179;42.640;23.312;2022-09-17T15:57:29;3.70;;;2.10;;
20036;SDS011;10179;42.640;23.312;2022-09-17T16:02:51;3.97;;;1.25;;
20036;SDS011;10179;42.640;23.312;2022-09-17T16:07:43;4.70;;;1.30;;
20036;SDS011;10179;42.640;23.312;2022-09-17T16:10:10;2.35;;;0.98;;
20036;SDS011;10179;42.640;23.312;2022-09-17T16:12:36;6.30;;;1.63;;
20036;SDS011;10179;42.640;23.312;2022-09-17T16:15:02;2.85;;;1.73;;
20036;SDS011;10179;42.640;23.312;2022-09-17T16:17:29;3.33;;;1.75;;
20036;SDS011;10179;42.640;23.312;2022-09-17T16:20:03;6.63;;;2.10;;
20036;SDS011;10179;42.640;23.312;2022-09-17T16:22:55;7.80;;;1.60;;
20036;SDS011;10179;42.640;23.312;2022-09-17T16:25:24;3.80;;;2.00;;
20036;SDS011;10179;42.640;23.312;2022-09-17T16:28:08;5.80;;;2.40;;
20036;SDS011;10179;42.640;23.312;2022-09-17T16:30:36;3.00;;;1.55;;
20036;SDS011;10179;42.640;23.312;2022-09-17T16:33:09;10.10;;;1.25;;
20036;SDS011;10179;42.640;23.312;2022-09-17T16:35:39;3.60;;;1.40;;
20036;SDS011;10179;42.640;23.312;2022-09-17T16:38:06;6.88;;;1.70;;
20036;SDS011;10179;42.640;23.312;2022-09-17T16:40:32;2.80;;;1.30;;
20036;SDS011;10179;42.640;23.312;2022-09-17T16:42:59;3.85;;;1.20;;
20036;SDS011;10179;42.640;23.312;2022-09-17T16:45:26;3.92;;;1.27;;
20036;SDS011;10179;42.640;23.312;2022-09-17T16:47:52;3.42;;;1.60;;
20036;SDS011;10179;42.640;23.312;2022-09-17T16:50:17;3.72;;;1.48;;
20036;SDS011;10179;42.640;23.312;2022-09-17T16:52:43;2.95;;;1.40;;
20036;SDS011;10179;42.640;23.312;2022-09-17T16:55:10;6.75;;;1.40;;
20036;SDS011;10179;42.640;23.312;2022-09-17T16:57:37;2.35;;;1.30;;
20036;SDS011;10179;42.640;23.312;2022-09-17T17:00:03;2.67;;;1.80;;
20036;SDS011;10179;42.640;23.312;2022-09-17T17:02:31;3.40;;;1.77;;
20036;SDS011;10179;42.640;23.312;2022-09-17T17:04:56;2.50;;;1.35;;
20036;SDS011;10179;42.640;23.312;2022-09-17T17:07:22;4.30;;;1.27;;
20036;SDS011;10179;42.640;23.312;2022-09-17T17:09:48;4.35;;;1.58;;
20036;SDS011;10179;42.640;23.312;2022-09-17T17:12:14;3.75;;;1.70;;
20036;SDS011;10179;42.640;23.312;2022-09-17T17:14:39;2.30;;;1.35;;
20036;SDS011;10179;42.640;23.312;2022-09-17T17:17:05;2.45;;;1.13;;
20036;SDS011;10179;42.640;23.312;2022-09-17T17:19:31;5.47;;;2.08;;
20036;SDS011;10179;42.640;23.312;2022-09-17T17:21:57;3.92;;;1.90;;
20036;SDS011;10179;42.640;23.312;2022-09-17T17:24:22;2.20;;;1.10;;
20036;SDS011;10179;42.640;23.312;2022-09-17T17:26:48;3.47;;;1.63;;
20036;SDS011;10179;42.640;23.312;2022-09-17T17:29:13;1.88;;;1.17;;
20036;SDS011;10179;42.640;23.312;2022-09-17T17:31:39;2.15;;;1.30;;
20036;SDS011;10179;42.640;23.312;2022-09-17T17:34:04;2.00;;;1.23;;
20036;SDS011;10179;42.640;23.312;2022-09-17T17:36:31;3.83;;;1.20;;
20036;SDS011;10179;42.640;23.312;2022-09-17T17:38:57;6.25;;;1.40;;
20036;SDS011;10179;42.640;23.312;2022-09-17T17:41:23;2.70;;;1.48;;
20036;SDS011;10179;42.640;23.312;2022-09-17T17:43:51;1.77;;;1.00;;
20036;SDS011;10179;42.640;23.312;2022-09-17T17:46:18;5.28;;;1.58;;
20036;SDS011;10179;42.640;23.312;2022-09-17T17:48:43;5.60;;;1.73;;
20036;SDS011;10179;42.640;23.312;2022-09-17T17:51:10;2.00;;;1.30;;
20036;SDS011;10179;42.640;23.312;2022-09-17T17:53:36;3.70;;;2.05;;
20036;SDS011;10179;42.640;23.312;2022-09-17T17:56:05;4.88;;;2.20;;
20036;SDS011;10179;42.640;23.312;2022-09-17T17:58:32;5.78;;;1.52;;
20036;SDS011;10179;42.640;23.312;2022-09-17T18:00:58;2.65;;;1.45;;
20036;SDS011;10179;42.640;23.312;2022-09-17T18:03:24;2.03;;;1.23;;
20036;SDS011;10179;42.640;23.312;2022-09-17T18:05:50;3.83;;;1.25;;
20036;SDS011;10179;42.640;23.312;2022-09-17T18:08:21;2.25;;;0.98;;
20036;SDS011;10179;42.640;23.312;2022-09-17T18:10:54;2.25;;;0.95;;
20036;SDS011;10179;42.640;23.312;2022-09-17T18:13:21;2.83;;;1.63;;
20036;SDS011;10179;42.640;23.312;2022-09-17T18:15:57;2.63;;;1.10;;
20036;SDS011;10179;42.640;23.312;2022-09-17T18:18:25;3.08;;;1.35;;
20036;SDS011;10179;42.640;23.312;2022-09-17T18:20:58;4.17;;;1.50;;